Time;durP1;ratioP1;P1;durP2;ratioP2;P2;SDS_P1;SDS_P2;PMS_P1;PMS_P2;Temp;Humidity;BMP_temperature;BMP_pressure;BME280_temperature;BME280_humidity;BME280_pressure;Samples;Min_cycle;Max_cycle;Signal;HPM_P1;HPM_P2
2022/04/07 00:01:20;;;;;;;27.52;12.95;;;10.00;99.90;;;9.01;96.85;95940.97;4987573;28;20772;-80
2022/04/07 00:03:47;;;;;;;26.20;12.82;;;10.00;99.90;;;8.91;96.95;95945.25;4987891;28;20402;-80
2022/04/07 00:06:13;;;;;;;25.75;12.48;;;9.90;99.90;;;8.93;97.13;95942.34;4987922;28;20403;-80
2022/04/07 00:08:40;;;;;;;25.80;11.57;;;10.00;99.90;;;8.88;97.16;95939.72;4988131;28;20712;-80
2022/04/07 00:11:07;;;;;;;24.13;11.18;;;9.90;99.90;;;8.73;97.10;95932.69;4987266;28;20879;-80
2022/04/07 00:13:33;;;;;;;23.40;11.23;;;9.80;99.90;;;8.64;96.65;95930.94;4987664;28;20471;-80
2022/04/07 00:15:59;;;;;;;24.17;12.00;;;9.70;99.90;;;8.64;96.77;95925.66;4987596;28;20410;-80
2022/04/07 00:18:26;;;;;;;23.98;11.90;;;9.70;99.90;;;8.57;96.58;95922.53;4986600;28;20407;-80
2022/04/07 00:20:53;;;;;;;24.40;11.53;;;9.60;99.90;;;8.51;96.38;95925.19;4987192;28;21014;-80
2022/04/07 00:23:20;;;;;;;22.73;11.38;;;9.60;99.90;;;8.50;96.72;95920.97;4987767;28;20432;-80
2022/04/07 00:25:46;;;;;;;21.05;10.07;;;9.60;99.90;;;8.48;96.50;95919.69;4987625;28;20409;-80
2022/04/07 00:28:12;;;;;;;21.65;10.65;;;9.50;99.90;;;8.53;96.67;95923.06;4987102;28;20491;-80
2022/04/07 00:30:39;;;;;;;24.05;11.73;;;9.60;99.90;;;8.57;97.17;95910.13;4987361;28;20437;-80
2022/04/07 00:33:07;;;;;;;22.50;11.30;;;9.60;99.90;;;8.41;97.12;95913.94;4987660;28;20410;-80
2022/04/07 00:35:33;;;;;;;21.85;11.25;;;9.40;99.90;;;8.44;97.36;95903.59;4987758;28;20455;-80
2022/04/07 00:38:00;;;;;;;21.50;10.38;;;9.40;99.90;;;8.47;97.28;95902.28;4991483;28;20410;-80
2022/04/07 00:40:27;;;;;;;18.35;10.52;;;9.50;99.90;;;8.57;97.58;95901.44;4991097;28;20440;-79
2022/04/07 00:42:53;;;;;;;19.30;9.48;;;9.50;99.90;;;8.60;97.91;95899.03;4988680;28;20415;-79
2022/04/07 00:45:21;;;;;;;17.48;9.02;;;9.60;99.90;;;8.70;98.11;95906.88;4993586;28;20456;-79
2022/04/07 00:47:49;;;;;;;20.15;9.48;;;9.70;99.90;;;8.80;98.45;95898.88;4992638;28;20417;-79
2022/04/07 00:50:17;;;;;;;17.38;8.55;;;9.80;99.90;;;8.84;98.55;95907.81;4986917;28;20549;-80
2022/04/07 00:52:45;;;;;;;20.97;9.40;;;9.80;99.90;;;8.81;98.63;95899.66;4987374;28;20444;-80
2022/04/07 00:55:14;;;;;;;15.75;8.55;;;9.80;99.90;;;8.85;98.70;95895.44;4987292;28;20475;-80
2022/04/07 00:57:41;;;;;;;19.60;9.55;;;9.80;99.90;;;8.96;98.96;95886.34;4987240;28;20509;-80
2022/04/07 01:00:10;;;;;;;16.35;8.60;;;9.90;99.90;;;8.90;99.09;95892.72;5001908;28;20414;-79
2022/04/07 01:02:36;;;;;;;17.83;8.90;;;9.90;99.90;;;8.86;99.18;95887.25;4987133;28;20444;-80
2022/04/07 01:05:03;;;;;;;20.92;9.70;;;9.90;99.90;;;8.93;99.43;95877.16;4987165;28;20407;-80
2022/04/07 01:07:29;;;;;;;18.33;9.07;;;9.90;99.90;;;8.92;99.36;95880.06;4987153;28;20556;-80
2022/04/07 01:09:55;;;;;;;20.07;9.97;;;9.90;99.90;;;8.79;99.33;95876.22;4986933;28;20411;-80
2022/04/07 01:12:22;;;;;;;22.35;10.18;;;9.80;99.90;;;8.65;99.18;95856.78;4986529;28;20409;-79
2022/04/07 01:14:56;;;;;;;16.48;8.73;;;9.70;99.90;;;8.65;98.99;95859.41;4986823;28;20454;-80
2022/04/07 01:17:22;;;;;;;17.70;8.35;;;9.70;99.90;;;8.65;98.99;95856.00;4986995;28;20527;-79
2022/04/07 01:19:48;;;;;;;16.67;7.97;;;9.70;99.90;;;8.74;98.87;95868.31;4986708;28;20459;-80
2022/04/07 01:22:15;;;;;;;15.80;7.40;;;9.70;99.90;;;8.75;99.23;95856.72;4986709;28;20815;-79
2022/04/07 01:24:42;;;;;;;17.77;7.95;;;9.80;99.90;;;8.69;99.14;95864.94;4986991;28;20410;-80
2022/04/07 01:27:08;;;;;;;16.40;7.15;;;9.70;99.90;;;8.55;99.29;95856.88;4986776;28;20452;-80
2022/04/07 01:29:34;;;;;;;11.75;6.30;;;9.60;99.90;;;8.59;99.12;95855.25;4986784;28;20807;-80
2022/04/07 01:32:10;;;;;;;13.20;6.38;;;9.60;99.90;;;8.45;99.05;95846.38;4986543;28;20410;-80
2022/04/07 01:34:36;;;;;;;10.80;5.80;;;9.40;99.90;;;8.41;98.71;95853.28;4986982;28;20481;-79
2022/04/07 01:37:03;;;;;;;11.48;6.50;;;9.40;99.90;;;8.31;98.81;95842.81;4987010;28;20391;-80
2022/04/07 01:39:30;;;;;;;15.30;6.75;;;9.40;99.90;;;8.24;98.64;95844.94;4987037;28;20404;-79
2022/04/07 01:41:57;;;;;;;16.05;7.93;;;9.30;99.90;;;8.21;98.56;95840.97;4986401;28;20406;-80
2022/04/07 01:44:26;;;;;;;13.02;7.15;;;9.20;99.90;;;8.12;98.70;95826.78;4986853;28;20468;-80
2022/04/07 01:46:53;;;;;;;15.80;7.03;;;9.10;99.90;;;8.15;98.63;95837.59;4986674;28;20444;-80
2022/04/07 01:49:22;;;;;;;16.33;7.40;;;9.20;99.90;;;8.24;98.68;95837.03;4987715;28;20410;-79
2022/04/07 01:51:49;;;;;;;13.88;6.60;;;9.20;99.90;;;8.13;98.89;95838.91;4989634;28;20419;-80
2022/04/07 01:54:16;;;;;;;13.20;6.63;;;9.10;99.90;;;8.20;99.03;95833.34;4989806;28;20497;-80
2022/04/07 01:56:43;;;;;;;17.98;6.78;;;9.20;99.90;;;8.23;99.16;95832.81;4990016;28;20414;-80
2022/04/07 01:59:12;;;;;;;12.05;6.55;;;9.20;99.90;;;8.31;99.37;95824.34;4989836;28;20457;-79
2022/04/07 02:01:38;;;;;;;11.57;5.50;;;9.30;99.90;;;8.24;99.50;95831.75;4989380;28;20399;-79
2022/04/07 02:04:04;;;;;;;9.68;5.50;;;9.30;99.90;;;8.25;99.64;95831.47;4989614;28;20411;-80
2022/04/07 02:06:30;;;;;;;14.85;6.47;;;9.30;99.90;;;8.28;99.69;95825.63;4989813;28;20410;-79
2022/04/07 02:08:57;;;;;;;11.37;5.83;;;9.30;99.90;;;8.12;99.31;95817.03;4989580;28;20567;-80
2022/04/07 02:11:23;;;;;;;12.32;5.65;;;9.20;99.90;;;8.20;99.65;95817.53;4989375;28;20406;-80
2022/04/07 02:13:49;;;;;;;11.20;5.32;;;9.20;99.90;;;8.14;99.63;95825.47;4989440;28;20931;-79
2022/04/07 02:16:19;;;;;;;10.68;5.47;;;9.10;99.90;;;8.21;99.69;95813.84;4989515;28;20453;-79
2022/04/07 02:18:45;;;;;;;11.43;5.53;;;9.20;99.90;;;8.13;99.63;95821.25;4989541;28;20486;-80
2022/04/07 02:21:10;;;;;;;10.15;5.55;;;9.10;99.90;;;8.15;99.64;95819.16;4988815;28;20402;-79
2022/04/07 02:23:42;;;;;;;10.10;5.30;;;9.10;99.90;;;8.06;99.65;95807.59;4989567;28;20403;-79
2022/04/07 02:26:11;;;;;;;9.13;4.83;;;9.10;99.90;;;8.12;99.53;95811.78;4989319;28;20490;-79
2022/04/07 02:28:37;;;;;;;8.90;5.10;;;9.10;99.90;;;8.14;99.64;95803.59;4989462;28;20452;-79
2022/04/07 02:31:02;;;;;;;11.52;5.50;;;9.10;99.90;;;8.04;99.62;95809.72;4989031;28;20412;-79
2022/04/07 02:33:30;;;;;;;10.27;5.28;;;9.00;99.90;;;8.16;99.80;95797.00;4989181;28;20793;-79
2022/04/07 02:35:56;;;;;;;12.02;5.30;;;9.10;99.90;;;8.11;99.76;95802.31;4989562;28;20452;-79
2022/04/07 02:38:22;;;;;;;9.87;5.20;;;9.10;99.90;;;8.14;99.75;95803.59;4989347;28;20404;-79
2022/04/07 02:40:48;;;;;;;9.48;5.05;;;9.10;99.90;;;8.22;99.84;95800.38;4988742;28;20407;-79
2022/04/07 02:43:13;;;;;;;16.08;6.10;;;9.20;99.90;;;8.29;100.00;95807.97;4989134;28;20485;-79
2022/04/07 02:45:39;;;;;;;14.20;5.85;;;9.20;99.90;;;8.32;100.00;95800.34;4989308;28;20442;-79
2022/04/07 02:48:06;;;;;;;13.80;6.22;;;9.30;99.90;;;8.28;100.00;95796.66;4989268;28;20411;-79
2022/04/07 02:50:33;;;;;;;12.48;6.45;;;9.20;99.90;;;8.34;100.00;95794.81;4988529;28;20403;-80
2022/04/07 02:52:59;;;;;;;14.55;6.72;;;9.30;99.90;;;8.19;100.00;95795.69;4988906;28;20414;-79
2022/04/07 02:55:25;;;;;;;16.00;6.47;;;9.20;99.90;;;8.14;100.00;95793.84;4988956;28;20414;-79
2022/04/07 02:57:51;;;;;;;12.70;6.13;;;9.20;99.90;;;7.83;100.00;95789.81;4988809;28;20479;-80
2022/04/07 03:00:18;;;;;;;11.30;6.00;;;8.80;99.90;;;7.85;100.00;95786.91;4987743;28;20481;-81
2022/04/07 03:02:44;;;;;;;9.75;5.80;;;8.80;99.90;;;7.91;100.00;95777.94;4988713;28;20555;-81
2022/04/07 03:05:11;;;;;;;13.03;6.23;;;8.90;99.90;;;7.91;100.00;95780.56;4989010;28;20456;-81
2022/04/07 03:07:38;;;;;;;17.02;7.20;;;8.90;99.90;;;7.84;100.00;95770.31;4989136;28;20489;-80
2022/04/07 03:10:05;;;;;;;15.25;6.63;;;8.90;99.90;;;7.80;100.00;95773.78;4988914;28;20410;-81
2022/04/07 03:12:30;;;;;;;17.70;7.75;;;8.80;99.90;;;7.66;100.00;95778.88;4988559;28;20407;-80
2022/04/07 03:14:56;;;;;;;19.80;7.65;;;8.70;99.90;;;7.48;100.00;95774.22;4987694;28;20448;-80
2022/04/07 03:17:22;;;;;;;17.45;7.70;;;8.50;99.90;;;7.53;100.00;95774.19;5004264;28;20418;-80
2022/04/07 03:19:48;;;;;;;17.40;7.60;;;8.50;99.90;;;7.57;100.00;95775.22;4988978;28;20403;-81
2022/04/07 03:22:15;;;;;;;15.73;7.20;;;8.50;99.90;;;7.48;100.00;95780.28;4988469;28;20411;-80
2022/04/07 03:24:43;;;;;;;19.33;8.43;;;8.60;99.90;;;7.53;100.00;95776.81;4988855;28;20484;-80
2022/04/07 03:27:09;;;;;;;17.00;7.53;;;8.60;99.90;;;7.65;100.00;95777.28;4988627;28;20402;-79
2022/04/07 03:29:35;;;;;;;18.23;8.20;;;8.70;99.90;;;7.70;100.00;95769.34;4988568;28;20406;-78
2022/04/07 03:32:02;;;;;;;26.05;8.40;;;8.70;99.90;;;7.66;100.00;95770.97;4988551;28;20403;-80
2022/04/07 03:34:28;;;;;;;18.48;8.02;;;8.70;99.90;;;7.60;100.00;95764.13;4988584;28;20965;-79
2022/04/07 03:36:54;;;;;;;20.10;7.93;;;8.60;99.90;;;7.66;100.00;95755.97;4988621;28;20456;-79
2022/04/07 03:39:20;;;;;;;17.65;8.05;;;8.60;99.90;;;7.59;100.00;95752.06;4988824;28;20911;-79
2022/04/07 03:41:47;;;;;;;19.23;7.47;;;8.60;99.90;;;7.60;100.00;95753.59;4988100;28;20982;-79
2022/04/07 03:44:13;;;;;;;15.57;7.65;;;8.60;99.90;;;7.59;100.00;95754.69;4988831;28;20406;-80
2022/04/07 03:46:39;;;;;;;19.38;8.30;;;8.60;99.90;;;7.65;100.00;95750.97;4988702;28;20414;-79
2022/04/07 03:49:05;;;;;;;16.33;7.07;;;8.60;99.90;;;7.64;100.00;95746.75;4988627;28;20411;-79
2022/04/07 03:51:31;;;;;;;17.97;8.10;;;8.60;99.90;;;7.63;100.00;95745.97;4988060;28;20508;-79
2022/04/07 03:53:58;;;;;;;18.27;7.82;;;8.70;99.90;;;7.52;100.00;95741.03;4988807;28;20415;-78
2022/04/07 03:56:24;;;;;;;16.58;6.85;;;8.50;99.90;;;7.50;100.00;95741.31;4996751;28;20474;-78
2022/04/07 03:58:51;;;;;;;15.18;7.68;;;8.60;99.90;;;7.39;100.00;95748.44;4990194;28;20497;-80
2022/04/07 04:01:17;;;;;;;18.70;7.53;;;8.40;99.90;;;7.52;100.00;95728.63;5005803;28;20403;-81
2022/04/07 04:03:43;;;;;;;13.77;6.57;;;8.50;99.90;;;7.61;100.00;95729.63;5012883;28;20470;-79
2022/04/07 04:06:09;;;;;;;18.33;7.75;;;8.60;99.90;;;7.66;100.00;95728.84;5008983;28;21012;-79
2022/04/07 04:08:35;;;;;;;18.23;7.88;;;8.60;99.90;;;7.68;100.00;95719.59;4995395;28;20488;-79
2022/04/07 04:11:01;;;;;;;17.42;7.53;;;8.70;99.90;;;7.65;100.00;95712.25;4994067;28;20419;-79
2022/04/07 04:13:29;;;;;;;24.00;7.80;;;8.70;99.90;;;7.70;100.00;95706.16;5000180;23;20444;-78
2022/04/07 04:15:56;;;;;;;18.95;8.32;;;8.70;99.90;;;7.76;100.00;95708.47;4959601;28;21032;-79
2022/04/07 04:18:23;;;;;;;20.35;8.30;;;8.80;99.90;;;7.73;100.00;95706.41;4960402;28;20998;-78
2022/04/07 04:20:49;;;;;;;18.08;8.23;;;8.70;99.90;;;7.59;100.00;95702.03;4958248;28;20416;-79
2022/04/07 04:23:15;;;;;;;22.27;8.30;;;8.60;99.90;;;7.68;100.00;95695.09;4965627;28;20404;-78
2022/04/07 04:25:41;;;;;;;15.27;7.73;;;8.60;99.90;;;7.43;100.00;95690.00;4962897;28;20920;-78
2022/04/07 04:28:07;;;;;;;14.15;7.25;;;8.50;99.90;;;7.45;100.00;95683.38;4958808;28;20510;-78
2022/04/07 04:30:32;;;;;;;17.23;7.38;;;8.40;99.90;;;7.42;100.00;95683.16;4944012;28;20428;-78
2022/04/07 04:33:00;;;;;;;19.63;7.72;;;8.40;99.90;;;7.43;100.00;95687.38;4965394;28;20448;-79
2022/04/07 04:35:26;;;;;;;16.95;7.57;;;8.40;99.90;;;7.35;100.00;95694.78;4964866;28;20526;-79
2022/04/07 04:37:51;;;;;;;16.88;7.82;;;8.40;99.90;;;7.50;100.00;95690.50;4954942;28;20443;-79
2022/04/07 04:40:18;;;;;;;18.30;7.55;;;8.50;99.90;;;7.52;100.00;95688.38;4944770;28;20425;-75
2022/04/07 04:42:44;;;;;;;16.95;7.82;;;8.50;99.90;;;7.47;100.00;95693.66;4961982;28;20430;-76
2022/04/07 04:45:10;;;;;;;18.23;7.93;;;8.50;99.90;;;7.50;100.00;95683.38;4949530;28;20430;-77
2022/04/07 04:47:36;;;;;;;17.00;7.50;;;8.40;99.90;;;7.57;100.00;95673.34;4953835;28;20410;-76
2022/04/07 04:50:05;;;;;;;13.88;6.63;;;8.50;99.90;;;7.46;100.00;95678.91;4951491;28;21045;-76
2022/04/07 04:52:31;;;;;;;13.65;6.50;;;8.40;99.90;;;7.46;100.00;95671.00;4949512;28;20410;-79
2022/04/07 04:54:57;;;;;;;13.55;6.40;;;8.40;99.90;;;7.50;100.00;95677.31;4950604;28;20428;-79
2022/04/07 04:57:23;;;;;;;12.50;6.18;;;8.50;99.90;;;7.53;100.00;95682.81;4961045;28;20844;-79
2022/04/07 04:59:49;;;;;;;11.47;5.93;;;8.50;99.90;;;7.49;100.00;95688.91;4958841;28;20429;-76
2022/04/07 05:02:15;;;;;;;12.38;5.88;;;8.50;99.90;;;7.58;100.00;95672.28;4950967;28;20406;-75
2022/04/07 05:04:41;;;;;;;11.90;5.67;;;8.50;99.90;;;7.54;100.00;95676.50;4948359;28;20464;-75
2022/04/07 05:07:08;;;;;;;13.45;5.03;;;8.50;99.90;;;7.68;100.00;95664.28;4948323;28;20402;-85
2022/04/07 05:09:34;;;;;;;7.38;4.80;;;8.60;99.90;;;7.57;100.00;95660.16;4949018;29;20506;-75
2022/04/07 05:12:01;;;;;;;6.50;4.50;;;8.60;99.90;;;7.57;100.00;95660.16;4948001;28;20987;-77
2022/04/07 05:14:26;;;;;;;7.15;4.60;;;8.60;99.90;;;7.57;100.00;95660.16;4948289;29;20953;-77
2022/04/07 05:16:53;;;;;;;6.88;4.20;;;8.60;99.90;;;7.34;99.96;95669.53;4950347;28;20413;-79
2022/04/07 05:19:19;;;;;;;6.55;3.83;;;8.40;99.90;;;7.45;99.27;95662.34;4947645;28;20499;-79
2022/04/07 05:21:49;;;;;;;9.27;4.20;;;8.40;99.90;;;7.48;98.94;95658.38;4947523;29;20433;-78
2022/04/07 05:24:19;;;;;;;8.18;3.85;;;8.40;99.90;;;7.44;98.87;95660.78;4946908;29;20406;-77
2022/04/07 05:26:46;;;;;;;6.45;4.07;;;8.40;99.90;;;7.44;98.71;95660.78;4952638;28;20414;-81
2022/04/07 05:29:12;;;;;;;7.18;4.30;;;8.40;99.90;;;7.41;98.87;95661.31;4951691;28;20414;-79
2022/04/07 05:31:38;;;;;;;7.05;3.70;;;8.40;99.90;;;7.49;99.04;95650.22;4951561;29;20410;-79
2022/04/07 05:34:04;;;;;;;5.75;3.83;;;8.50;99.90;;;7.56;99.30;95649.91;4952037;28;20452;-88
2022/04/07 05:36:30;;;;;;;5.33;3.40;;;8.50;99.90;;;7.49;99.37;95652.06;4953456;29;20414;-88
2022/04/07 05:38:56;;;;;;;7.25;3.90;;;8.50;99.90;;;7.51;99.39;95661.25;4951538;28;20414;-77
2022/04/07 05:41:23;;;;;;;4.82;3.47;;;8.50;99.90;;;7.46;99.02;95649.97;4951160;29;20412;-77
2022/04/07 05:43:50;;;;;;;5.70;3.70;;;8.50;99.90;;;7.67;98.86;95652.19;4952241;28;20421;-76
2022/04/07 05:46:16;;;;;;;7.65;4.20;;;8.60;99.90;;;7.71;99.13;95637.41;4951124;28;20822;-75
2022/04/07 05:48:42;;;;;;;8.15;3.75;;;8.70;99.90;;;7.78;99.49;95635.25;4951201;28;20438;-75
2022/04/07 05:51:07;;;;;;;7.00;3.15;;;8.80;99.90;;;7.70;99.38;95635.84;4950784;28;20924;-75
2022/04/07 05:53:33;;;;;;;5.20;3.13;;;8.70;99.90;;;7.67;99.47;95630.31;4951043;29;20406;-83
2022/04/07 05:56:00;;;;;;;6.03;3.05;;;8.70;99.90;;;7.68;98.53;95622.16;4951121;29;20745;-78
2022/04/07 05:58:28;;;;;;;5.30;2.83;;;8.70;99.90;;;7.74;97.96;95618.41;4951146;28;20414;-76
2022/04/07 06:00:54;;;;;;;3.70;2.53;;;8.70;99.90;;;7.88;97.56;95610.69;4948615;28;20734;-75
2022/04/07 06:03:20;;;;;;;3.53;2.47;;;8.80;99.90;;;7.92;96.93;95609.06;4950373;29;20907;-76
2022/04/07 06:05:52;;;;;;;3.37;2.30;;;8.80;99.90;;;7.99;96.43;95583.16;4950973;28;20575;-78
2022/04/07 06:08:18;;;;;;;3.50;2.03;;;8.90;99.90;;;8.01;96.00;95596.06;4951322;28;20808;-79
2022/04/07 06:10:44;;;;;;;2.10;1.90;;;8.90;99.90;;;8.00;94.35;95583.94;4950613;28;20418;-74
2022/04/07 06:13:11;;;;;;;2.25;1.60;;;9.00;99.90;;;8.08;94.17;95576.22;4950674;28;20449;-76
2022/04/07 06:15:39;;;;;;;1.63;1.52;;;9.00;99.90;;;8.16;92.59;95561.66;4950252;28;20453;-75
2022/04/07 06:18:06;;;;;;;3.58;1.60;;;9.10;99.90;;;8.23;92.89;95558.69;4951052;28;20456;-85
2022/04/07 06:20:32;;;;;;;2.38;1.70;;;9.10;99.90;;;8.37;93.78;95549.84;4950586;29;20846;-85
2022/04/07 06:23:00;;;;;;;2.65;1.45;;;9.20;99.90;;;8.45;93.53;95562.41;4950943;29;20433;-84
2022/04/07 06:25:26;;;;;;;1.50;1.40;;;9.30;99.90;;;8.52;93.43;95569.97;4951022;28;20409;-85
2022/04/07 06:27:52;;;;;;;1.40;1.30;;;9.40;99.90;;;8.54;92.54;95563.38;4951004;28;20501;-75
2022/04/07 06:30:20;;;;;;;3.80;1.50;;;9.40;99.90;;;8.53;92.47;95567.06;4950314;28;20405;-76
2022/04/07 06:32:49;;;;;;;1.77;1.48;;;9.40;99.90;;;8.65;91.81;95565.84;4950466;28;20418;-77
2022/04/07 06:35:16;;;;;;;3.50;1.30;;;9.50;99.90;;;8.63;91.84;95566.16;4950423;28;20923;-76
2022/04/07 06:37:52;;;;;;;3.67;1.33;;;9.50;99.90;;;8.49;92.48;95555.50;4950469;28;20888;-76
2022/04/07 06:40:22;;;;;;;1.90;1.20;;;9.50;99.90;;;8.46;89.63;95565.84;4949930;28;20478;-75
2022/04/07 06:42:48;;;;;;;1.70;1.23;;;9.40;99.90;;;8.47;91.96;95538.41;4950275;29;20410;-76
2022/04/07 06:45:14;;;;;;;2.70;1.40;;;9.30;99.90;;;8.45;91.63;95551.06;4950012;28;20414;-77
2022/04/07 06:47:41;;;;;;;1.20;1.10;;;9.30;99.90;;;8.58;93.72;95549.59;4950188;28;21015;-76
2022/04/07 06:50:11;;;;;;;3.13;1.23;;;9.40;99.90;;;8.51;92.87;95556.00;4950233;28;20554;-75
2022/04/07 06:52:37;;;;;;;2.35;1.33;;;9.40;99.90;;;8.58;91.96;95553.03;4950375;28;20447;-74
2022/04/07 06:55:04;;;;;;;1.10;1.10;;;9.40;99.90;;;8.51;91.06;95547.31;4950100;28;20418;-76
2022/04/07 06:57:30;;;;;;;2.08;1.10;;;9.40;99.90;;;8.51;90.80;95548.09;4950208;28;20483;-83
2022/04/07 06:59:56;;;;;;;1.20;1.02;;;9.40;99.90;;;8.51;89.65;95561.28;4950356;28;20410;-76
2022/04/07 07:02:22;;;;;;;1.70;1.10;;;9.40;99.90;;;8.54;89.19;95562.56;4949634;29;20421;-76
2022/04/07 07:04:48;;;;;;;1.20;1.10;;;9.40;99.90;;;8.53;88.42;95556.50;4950015;29;20489;-79
2022/04/07 07:07:16;;;;;;;1.20;1.00;;;9.40;99.90;;;8.61;89.91;95547.19;4950292;29;20845;-84
2022/04/07 07:09:42;;;;;;;1.50;1.00;;;9.50;99.90;;;8.67;89.43;95542.63;4950201;29;20464;-84
2022/04/07 07:12:08;;;;;;;1.17;1.08;;;9.50;99.90;;;8.76;90.08;95533.03;4949973;29;20406;-85
2022/04/07 07:14:35;;;;;;;1.13;0.90;;;9.60;99.90;;;8.83;87.59;95534.25;4949786;28;20466;-82
2022/04/07 07:17:01;;;;;;;1.10;0.90;;;9.70;99.90;;;9.02;88.65;95526.31;4950025;29;20475;-77
2022/04/07 07:19:28;;;;;;;1.80;1.10;;;9.90;99.90;;;9.07;84.83;95517.56;4955968;29;20468;-79
2022/04/07 07:21:54;;;;;;;1.17;0.98;;;9.90;99.90;;;9.19;85.97;95512.59;4949999;29;20478;-80
2022/04/07 07:24:22;;;;;;;1.50;1.00;;;10.10;99.90;;;9.27;85.42;95507.47;4949430;28;20418;-83
2022/04/07 07:26:47;;;;;;;1.02;0.93;;;10.20;99.90;;;9.32;83.17;95494.16;4958509;28;20462;-81
2022/04/07 07:29:13;;;;;;;1.30;0.90;;;10.20;99.80;;;9.42;84.93;95489.81;4949769;28;20457;-83
2022/04/07 07:31:39;;;;;;;1.15;1.05;;;10.30;99.90;;;9.55;85.92;95486.41;4948857;28;20422;-74
2022/04/07 07:34:05;;;;;;;1.80;1.00;;;10.40;99.90;;;9.76;89.73;95487.63;4947093;28;20437;-77
2022/04/07 07:36:31;;;;;;;1.58;1.00;;;10.60;99.90;;;9.88;84.28;95487.94;4955053;28;20453;-82
2022/04/07 07:38:57;;;;;;;1.00;0.90;;;10.70;99.90;;;9.98;83.29;95492.25;4949724;28;20406;-77
2022/04/07 07:41:25;;;;;;;1.20;1.10;;;10.80;99.90;;;10.09;81.47;95475.09;4949469;28;20426;-81
2022/04/07 07:43:51;;;;;;;3.65;1.20;;;11.00;99.90;;;10.32;84.50;95473.38;4949468;28;20410;-77
2022/04/07 07:46:17;;;;;;;2.13;0.85;;;11.10;99.90;;;10.41;84.23;95464.44;4955991;28;20414;-75
2022/04/07 07:48:43;;;;;;;1.50;0.90;;;11.30;99.90;;;10.72;86.93;95466.44;4946727;28;20435;-76
2022/04/07 07:51:09;;;;;;;0.90;0.90;;;11.50;99.90;;;10.70;81.74;95461.44;4943404;28;20414;-76
2022/04/07 07:53:35;;;;;;;1.75;0.90;;;11.60;99.60;;;10.73;81.40;95452.91;4938715;29;20461;-76
2022/04/07 07:56:01;;;;;;;2.05;1.00;;;11.60;99.90;;;10.74;79.92;95459.00;4953319;28;20432;-81
2022/04/07 07:58:28;;;;;;;1.85;1.00;;;11.60;98.80;;;10.76;79.53;95456.81;4949790;28;20501;-92
2022/04/07 08:00:56;;;;;;;2.80;0.80;;;11.60;99.40;;;10.72;80.04;95459.28;4952346;29;20448;-91
2022/04/07 08:03:22;;;;;;;1.30;0.88;;;11.60;98.80;;;10.72;79.36;95447.91;4958068;28;20416;-92
2022/04/07 08:05:48;;;;;;;1.25;1.00;;;11.60;99.30;;;10.67;76.80;95450.69;4963638;28;20406;-87
2022/04/07 08:08:14;;;;;;;2.22;1.10;;;11.60;97.70;;;10.70;79.18;95453.50;4949454;28;20440;-81
2022/04/07 08:10:40;;;;;;;1.30;0.90;;;11.60;99.00;;;10.67;75.70;95443.53;4949760;28;20410;-88
2022/04/07 08:13:06;;;;;;;3.22;0.90;;;11.50;97.30;;;10.64;74.98;95430.88;4949596;29;20862;-81
2022/04/07 08:15:34;;;;;;;1.05;0.90;;;11.60;95.70;;;10.73;75.05;95428.31;4949164;29;20933;-77
2022/04/07 08:18:00;;;;;;;2.10;1.17;;;11.60;95.50;;;10.81;73.45;95430.25;4949017;28;20417;-76
2022/04/07 08:20:26;;;;;;;1.48;1.00;;;11.60;95.80;;;10.86;72.23;95412.38;4948625;28;20728;-76
2022/04/07 08:22:52;;;;;;;2.72;1.00;;;11.70;94.90;;;10.93;70.93;95414.59;4949051;29;20417;-76
2022/04/07 08:25:18;;;;;;;2.43;1.10;;;11.80;93.90;;;11.04;70.96;95418.59;4949027;28;20469;-76
2022/04/07 08:27:45;;;;;;;1.10;0.90;;;11.90;92.30;;;11.09;70.37;95394.63;4942422;28;20677;-90
2022/04/07 08:30:12;;;;;;;3.70;0.90;;;11.90;93.40;;;11.23;69.73;95407.78;4947713;28;20410;-87
2022/04/07 08:32:39;;;;;;;2.40;1.00;;;12.00;92.50;;;11.25;67.69;95422.31;4948954;28;20544;-86
2022/04/07 08:35:06;;;;;;;1.08;0.80;;;12.10;91.20;;;11.20;66.90;95411.06;4949005;29;20430;-80
2022/04/07 08:37:35;;;;;;;1.37;0.90;;;12.10;90.40;;;11.12;67.09;95399.34;4952169;28;20406;-83
2022/04/07 08:40:05;;;;;;;1.77;0.80;;;12.00;90.80;;;11.10;66.48;95406.78;4948932;28;20410;-81
2022/04/07 08:42:32;;;;;;;1.50;0.85;;;12.00;91.20;;;11.17;67.44;95396.53;4948333;28;20491;-81
2022/04/07 08:44:58;;;;;;;1.10;0.90;;;12.00;91.40;;;11.30;66.60;95386.94;4949096;29;21174;-84
2022/04/07 08:47:24;;;;;;;1.00;0.80;;;12.10;90.50;;;11.48;66.16;95395.78;4952980;28;20406;-77
2022/04/07 08:49:52;;;;;;;1.20;0.80;;;12.30;90.00;;;11.62;65.33;95381.34;4948584;28;20428;-74
2022/04/07 08:52:19;;;;;;;2.50;0.80;;;12.40;89.60;;;11.85;65.96;95368.81;4946848;28;20408;-75
2022/04/07 08:54:45;;;;;;;0.90;0.70;;;12.60;90.70;;;12.09;64.01;95368.41;4948114;28;20520;-75
2022/04/07 08:57:12;;;;;;;3.47;0.82;;;12.90;87.00;;;12.13;63.45;95369.34;4954938;28;20948;-75
2022/04/07 08:59:38;;;;;;;1.33;0.77;;;13.00;86.30;;;12.10;62.30;95350.63;4945018;28;20483;-75
2022/04/07 09:02:05;;;;;;;2.85;0.85;;;13.00;83.30;;;12.03;61.16;95362.44;4950476;28;20415;-74
2022/04/07 09:04:36;;;;;;;0.98;0.65;;;12.90;81.70;;;11.96;64.34;95353.38;4945903;28;20463;-75
2022/04/07 09:07:04;;;;;;;1.35;0.70;;;12.80;86.60;;;11.94;64.57;95359.03;4945686;28;20805;-75
2022/04/07 09:09:32;;;;;;;0.70;0.70;;;12.80;89.10;;;12.03;61.44;95348.41;4955135;28;20521;-74
2022/04/07 09:11:59;;;;;;;1.88;0.68;;;12.80;83.10;;;11.95;61.86;95354.50;4953964;28;20907;-75
2022/04/07 09:14:26;;;;;;;3.80;0.80;;;12.80;83.20;;;11.93;61.41;95356.66;4953924;28;20441;-75
2022/04/07 09:16:54;;;;;;;0.57;0.57;;;12.70;82.50;;;11.91;60.30;95335.75;4951620;29;20505;-75
2022/04/07 09:19:21;;;;;;;2.25;0.65;;;12.70;80.60;;;11.80;60.15;95337.13;4961385;28;20552;-76
2022/04/07 09:21:48;;;;;;;1.65;0.70;;;12.70;80.40;;;11.75;61.04;95352.41;4956552;28;20412;-76
2022/04/07 09:24:15;;;;;;;1.42;0.70;;;12.60;81.20;;;11.74;61.38;95372.81;4949930;28;20480;-76
2022/04/07 09:26:44;;;;;;;3.73;0.70;;;12.60;81.30;;;11.53;69.01;95347.94;4951125;28;20484;-77
2022/04/07 09:29:14;;;;;;;2.20;0.73;;;12.40;91.40;;;11.31;68.87;95334.75;4960016;28;20451;-76
2022/04/07 09:31:50;;;;;;;3.05;0.95;;;12.20;92.10;;;11.13;68.17;95339.97;4952587;28;20468;-74
2022/04/07 09:34:29;;;;;;;3.67;0.90;;;12.00;91.10;;;10.99;68.81;95323.38;4959519;28;20445;-75
2022/04/07 09:37:04;;;;;;;3.25;0.77;;;11.90;91.70;;;10.74;73.88;95322.19;4961627;28;20539;-75
2022/04/07 09:39:33;;;;;;;4.10;0.80;;;11.70;94.20;;;10.62;75.20;95337.00;4960511;28;20788;-76
2022/04/07 09:42:20;;;;;;;4.40;0.88;;;11.50;96.10;;;10.42;76.89;95333.78;4958936;28;20420;-76
2022/04/07 09:44:51;;;;;;;1.83;0.80;;;11.30;97.50;;;10.31;74.80;95331.63;4962083;28;20404;-75
2022/04/07 09:47:18;;;;;;;1.55;0.90;;;11.20;96.20;;;10.28;76.37;95342.84;4956605;28;20408;-74
2022/04/07 09:49:44;;;;;;;1.42;1.10;;;11.20;97.30;;;10.32;75.97;95327.91;4966848;28;20463;-76
2022/04/07 09:52:11;;;;;;;1.20;0.90;;;11.20;96.60;;;10.44;75.68;95296.44;4961541;28;20547;-79
2022/04/07 09:54:41;;;;;;;1.65;0.90;;;11.30;97.10;;;10.60;75.01;95296.88;4967477;28;20420;-76
2022/04/07 09:57:09;;;;;;;1.27;0.80;;;11.40;96.40;;;10.82;75.29;95270.38;4967363;28;20907;-76
2022/04/07 09:59:38;;;;;;;1.02;0.80;;;11.60;97.20;;;11.12;73.69;95268.81;4969529;28;20488;-77
2022/04/07 10:02:06;;;;;;;6.00;0.95;;;11.90;96.30;;;11.28;71.00;95283.16;4952379;28;20423;-75
2022/04/07 10:04:34;;;;;;;1.30;0.88;;;12.10;94.10;;;11.41;71.96;95260.31;4949185;28;20548;-75
2022/04/07 10:07:02;;;;;;;1.42;0.70;;;12.20;94.70;;;11.59;69.35;95265.34;4942257;29;20801;-76
2022/04/07 10:09:30;;;;;;;0.80;0.70;;;12.40;92.50;;;11.79;71.36;95279.94;4946419;28;20410;-76
2022/04/07 10:11:59;;;;;;;2.50;0.70;;;12.50;93.80;;;12.00;66.22;95259.69;4951306;28;20406;-75
2022/04/07 10:14:27;;;;;;;4.27;0.83;;;12.80;90.40;;;12.07;65.10;95245.94;4984370;22;21015;-76
2022/04/07 10:16:53;;;;;;;2.97;0.67;;;12.80;88.50;;;12.09;65.40;95253.59;4990775;28;20768;-73
2022/04/07 10:19:27;;;;;;;3.58;0.68;;;12.90;89.00;;;12.18;64.40;95243.78;4990721;28;20403;-71
2022/04/07 10:22:08;;;;;;;3.45;0.60;;;13.00;87.50;;;12.34;63.17;95269.47;4990186;28;20407;-72